AFR28 KLAX-NTAA
Flight info
| Callsign | AFR28 |
|---|---|
| Flight time | N/A |
| Altitude | 38000 |
| Route | ZILLI5 FICKY DCT TONYS DCT 2500N12830W/N0490F380 2000N13230W 1500N13545W 1000N13830W 0330N14130W/N0482F400 0000N14245W 0500S14430W 1000S14615W 15S148W DCT ASOKI ASOKI4K |
| Aircraft | A359/H-SDE2E3GHIJ3J4J5LM1ORWXY/LB1D1 |
Departure
| Time | 2026-04-20 07:32 |
|---|---|
| Airport | Los Angeles International Airport (KLAX) |
Arrival
| Time | N/A |
|---|---|
| Airport | Fa'a'ā International Airport (NTAA) |
| Time | Latitude | Longitude | Altitude | Speed | Heading |
|---|---|---|---|---|---|
| 2026-04-20 06:54 | 33.94348 | -118.41588 | 100 ft | 0 kts | 84° |
| 2026-04-20 07:13 | 33.94346 | -118.41604 | 100 ft | 4 kts | 83° |
| 2026-04-20 07:14 | 33.94342 | -118.41635 | 98 ft | 4 kts | 69° |
| 2026-04-20 07:14 | 33.94329 | -118.41660 | 96 ft | 4 kts | 31° |
| 2026-04-20 07:14 | 33.94305 | -118.41669 | 97 ft | 3 kts | 354° |
| 2026-04-20 07:14 | 33.94300 | -118.41668 | 98 ft | 0 kts | 352° |
| 2026-04-20 07:19 | 33.94309 | -118.41669 | 99 ft | 4 kts | 353° |
| 2026-04-20 07:20 | 33.94352 | -118.41684 | 101 ft | 7 kts | 326° |
| 2026-04-20 07:20 | 33.94360 | -118.41735 | 102 ft | 6 kts | 252° |
| 2026-04-20 07:20 | 33.94330 | -118.41764 | 102 ft | 5 kts | 199° |
| 2026-04-20 07:20 | 33.94291 | -118.41766 | 100 ft | 6 kts | 176° |
| 2026-04-20 07:21 | 33.94246 | -118.41761 | 100 ft | 7 kts | 173° |
| 2026-04-20 07:21 | 33.94196 | -118.41754 | 100 ft | 8 kts | 173° |
| 2026-04-20 07:21 | 33.94140 | -118.41746 | 101 ft | 8 kts | 172° |
| 2026-04-20 07:21 | 33.94080 | -118.41736 | 100 ft | 9 kts | 173° |
| 2026-04-20 07:22 | 33.94016 | -118.41727 | 101 ft | 10 kts | 172° |
| 2026-04-20 07:22 | 33.93947 | -118.41716 | 101 ft | 10 kts | 172° |
| 2026-04-20 07:22 | 33.93875 | -118.41705 | 101 ft | 11 kts | 173° |
| 2026-04-20 07:22 | 33.93801 | -118.41695 | 101 ft | 11 kts | 173° |
| 2026-04-20 07:23 | 33.93730 | -118.41677 | 103 ft | 9 kts | 149° |
| 2026-04-20 07:23 | 33.93714 | -118.41610 | 105 ft | 9 kts | 90° |
| 2026-04-20 07:23 | 33.93723 | -118.41526 | 104 ft | 11 kts | 81° |
| 2026-04-20 07:23 | 33.93733 | -118.41429 | 102 ft | 12 kts | 83° |
| 2026-04-20 07:24 | 33.93743 | -118.41321 | 102 ft | 13 kts | 83° |
| 2026-04-20 07:24 | 33.93754 | -118.41204 | 103 ft | 15 kts | 83° |
| 2026-04-20 07:24 | 33.93768 | -118.41076 | 101 ft | 16 kts | 82° |
| 2026-04-20 07:24 | 33.93782 | -118.40941 | 101 ft | 12 kts | 82° |
| 2026-04-20 07:25 | 33.93794 | -118.40835 | 101 ft | 13 kts | 82° |
| 2026-04-20 07:25 | 33.93805 | -118.40723 | 101 ft | 14 kts | 83° |
| 2026-04-20 07:25 | 33.93816 | -118.40603 | 100 ft | 15 kts | 83° |
| 2026-04-20 07:25 | 33.93829 | -118.40478 | 102 ft | 15 kts | 83° |
| 2026-04-20 07:26 | 33.93842 | -118.40350 | 102 ft | 16 kts | 83° |
| 2026-04-20 07:26 | 33.93856 | -118.40217 | 105 ft | 16 kts | 83° |
| 2026-04-20 07:26 | 33.93870 | -118.40085 | 103 ft | 17 kts | 83° |
| 2026-04-20 07:26 | 33.93885 | -118.39941 | 105 ft | 18 kts | 83° |
| 2026-04-20 07:27 | 33.93900 | -118.39788 | 104 ft | 19 kts | 83° |
| 2026-04-20 07:27 | 33.93917 | -118.39626 | 101 ft | 17 kts | 83° |
| 2026-04-20 07:27 | 33.93924 | -118.39556 | 101 ft | 7 kts | 83° |
| 2026-04-20 07:27 | 33.93931 | -118.39488 | 101 ft | 9 kts | 83° |
| 2026-04-20 07:28 | 33.93939 | -118.39404 | 103 ft | 11 kts | 83° |
| 2026-04-20 07:28 | 33.93950 | -118.39304 | 101 ft | 13 kts | 83° |
| 2026-04-20 07:28 | 33.93958 | -118.39221 | 101 ft | 8 kts | 83° |
| 2026-04-20 07:28 | 33.93964 | -118.39154 | 103 ft | 9 kts | 83° |
| 2026-04-20 07:29 | 33.93972 | -118.39078 | 102 ft | 9 kts | 83° |
| 2026-04-20 07:29 | 33.93980 | -118.38997 | 100 ft | 11 kts | 83° |
| 2026-04-20 07:29 | 33.93990 | -118.38902 | 100 ft | 12 kts | 83° |
| 2026-04-20 07:29 | 33.94000 | -118.38798 | 101 ft | 13 kts | 83° |
| 2026-04-20 07:30 | 33.94012 | -118.38688 | 105 ft | 13 kts | 82° |
| 2026-04-20 07:30 | 33.94024 | -118.38574 | 103 ft | 14 kts | 83° |
| 2026-04-20 07:30 | 33.94036 | -118.38454 | 104 ft | 15 kts | 83° |
| 2026-04-20 07:30 | 33.94038 | -118.38349 | 104 ft | 9 kts | 117° |
| 2026-04-20 07:31 | 33.93995 | -118.38328 | 104 ft | 6 kts | 173° |
| 2026-04-20 07:31 | 33.93959 | -118.38326 | 104 ft | 3 kts | 193° |
| 2026-04-20 07:31 | 33.93953 | -118.38338 | 105 ft | 0 kts | 246° |
| 2026-04-20 07:31 | 33.93944 | -118.38414 | 105 ft | 22 kts | 264° |
| 2026-04-20 07:32 | 33.93898 | -118.38860 | 104 ft | 85 kts | 263° |
| 2026-04-20 07:32 | 33.93804 | -118.39789 | 105 ft | 137 kts | 263° |
| 2026-04-20 07:32 | 33.93664 | -118.41072 | 360 ft | 159 kts | 261° |
| 2026-04-20 07:32 | 33.93493 | -118.42367 | 951 ft | 156 kts | 259° |
| 2026-04-20 07:33 | 33.93313 | -118.43673 | 1377 ft | 163 kts | 262° |
| 2026-04-20 07:33 | 33.93176 | -118.45095 | 1578 ft | 179 kts | 261° |
| 2026-04-20 07:33 | 33.92706 | -118.46536 | 1745 ft | 194 kts | 236° |
| 2026-04-20 07:33 | 33.91871 | -118.47891 | 1988 ft | 209 kts | 231° |
| 2026-04-20 07:34 | 33.90932 | -118.49306 | 2259 ft | 223 kts | 230° |
| 2026-04-20 07:34 | 33.89898 | -118.50801 | 2466 ft | 242 kts | 229° |
| 2026-04-20 07:34 | 33.88771 | -118.52383 | 2798 ft | 254 kts | 228° |
| 2026-04-20 07:35 | 33.86442 | -118.55665 | 3861 ft | 261 kts | 227° |
| 2026-04-20 07:35 | 33.85093 | -118.57128 | 4418 ft | 261 kts | 214° |
| 2026-04-20 07:35 | 33.83607 | -118.58394 | 4973 ft | 263 kts | 212° |
| 2026-04-20 07:35 | 33.82149 | -118.59734 | 5518 ft | 265 kts | 221° |
| 2026-04-20 07:36 | 33.80833 | -118.61290 | 6086 ft | 266 kts | 224° |
| 2026-04-20 07:36 | 33.79544 | -118.62893 | 6648 ft | 267 kts | 224° |
| 2026-04-20 07:36 | 33.78259 | -118.64517 | 7145 ft | 269 kts | 224° |
| 2026-04-20 07:36 | 33.76970 | -118.66157 | 7659 ft | 271 kts | 224° |
| 2026-04-20 07:37 | 33.75676 | -118.67810 | 8173 ft | 272 kts | 225° |
| 2026-04-20 07:37 | 33.74376 | -118.69473 | 8696 ft | 274 kts | 225° |
| 2026-04-20 07:37 | 33.73065 | -118.71150 | 9211 ft | 276 kts | 225° |
| 2026-04-20 07:37 | 33.71749 | -118.72834 | 9738 ft | 278 kts | 225° |
| 2026-04-20 07:38 | 33.70420 | -118.74534 | 10190 ft | 282 kts | 225° |
| 2026-04-20 07:38 | 33.69048 | -118.76287 | 10409 ft | 294 kts | 225° |
| 2026-04-20 07:38 | 33.67618 | -118.78113 | 10612 ft | 306 kts | 225° |
| 2026-04-20 07:38 | 33.66138 | -118.80003 | 10812 ft | 318 kts | 225° |
| 2026-04-20 07:39 | 33.64605 | -118.81960 | 11027 ft | 330 kts | 225° |
| 2026-04-20 07:39 | 33.63011 | -118.83996 | 11214 ft | 340 kts | 225° |
| 2026-04-20 07:39 | 33.61365 | -118.86097 | 11410 ft | 350 kts | 225° |
| 2026-04-20 07:39 | 33.59680 | -118.88246 | 11713 ft | 356 kts | 225° |
| 2026-04-20 07:40 | 33.57977 | -118.90418 | 12105 ft | 359 kts | 225° |
| 2026-04-20 07:40 | 33.56259 | -118.92608 | 12527 ft | 361 kts | 225° |
| 2026-04-20 07:40 | 33.54531 | -118.94808 | 12943 ft | 363 kts | 225° |
| 2026-04-20 07:40 | 33.52797 | -118.97014 | 13352 ft | 365 kts | 225° |
| 2026-04-20 07:41 | 33.51046 | -118.99240 | 13772 ft | 367 kts | 225° |
| 2026-04-20 07:41 | 33.49290 | -119.01471 | 14128 ft | 369 kts | 225° |
| 2026-04-20 07:41 | 33.47525 | -119.03712 | 14471 ft | 372 kts | 225° |
| 2026-04-20 07:41 | 33.45744 | -119.05973 | 14825 ft | 374 kts | 225° |
| 2026-04-20 07:42 | 33.43957 | -119.08239 | 15182 ft | 376 kts | 226° |
| 2026-04-20 07:42 | 33.42154 | -119.10523 | 15531 ft | 378 kts | 226° |
| 2026-04-20 07:42 | 33.40347 | -119.12811 | 15882 ft | 380 kts | 226° |
| 2026-04-20 07:42 | 33.38528 | -119.15114 | 16230 ft | 382 kts | 226° |
| 2026-04-20 07:43 | 33.36699 | -119.17427 | 16585 ft | 384 kts | 226° |
| 2026-04-20 07:43 | 33.34861 | -119.19751 | 16921 ft | 386 kts | 226° |
| 2026-04-20 07:43 | 33.33008 | -119.22091 | 17269 ft | 388 kts | 226° |
| 2026-04-20 07:43 | 33.31147 | -119.24440 | 17595 ft | 390 kts | 226° |
| 2026-04-20 07:44 | 33.29277 | -119.26798 | 17965 ft | 391 kts | 227° |
| 2026-04-20 07:44 | 33.27402 | -119.29162 | 18321 ft | 393 kts | 227° |
| 2026-04-20 07:44 | 33.25515 | -119.31539 | 18598 ft | 395 kts | 227° |
| 2026-04-20 07:44 | 33.23620 | -119.33925 | 18882 ft | 396 kts | 227° |
| 2026-04-20 07:45 | 33.21721 | -119.36315 | 19186 ft | 398 kts | 227° |
| 2026-04-20 07:45 | 33.19808 | -119.38719 | 19471 ft | 399 kts | 227° |
| 2026-04-20 07:45 | 33.17898 | -119.41120 | 19764 ft | 401 kts | 227° |
| 2026-04-20 07:45 | 33.15972 | -119.43537 | 20045 ft | 402 kts | 227° |
| 2026-04-20 07:46 | 33.14043 | -119.45957 | 20321 ft | 403 kts | 227° |
| 2026-04-20 07:46 | 33.12106 | -119.48386 | 20616 ft | 405 kts | 227° |
| 2026-04-20 07:46 | 33.10159 | -119.50826 | 20889 ft | 406 kts | 227° |
| 2026-04-20 07:46 | 33.08211 | -119.53264 | 21157 ft | 408 kts | 227° |
| 2026-04-20 07:47 | 33.06251 | -119.55717 | 21476 ft | 408 kts | 227° |
| 2026-04-20 07:47 | 33.04293 | -119.58165 | 21779 ft | 409 kts | 227° |
| 2026-04-20 07:47 | 33.02326 | -119.60622 | 22042 ft | 411 kts | 227° |
| 2026-04-20 07:47 | 33.00348 | -119.63092 | 22293 ft | 412 kts | 227° |
| 2026-04-20 07:48 | 32.98394 | -119.65530 | 22544 ft | 414 kts | 227° |
| 2026-04-20 07:48 | 32.96402 | -119.68014 | 22778 ft | 416 kts | 227° |
| 2026-04-20 07:48 | 32.94401 | -119.70508 | 22985 ft | 417 kts | 227° |
| 2026-04-20 07:48 | 32.92365 | -119.73043 | 23259 ft | 419 kts | 227° |
| 2026-04-20 07:49 | 32.90378 | -119.75515 | 23525 ft | 420 kts | 227° |
| 2026-04-20 07:49 | 32.88364 | -119.78019 | 23741 ft | 421 kts | 228° |
| 2026-04-20 07:49 | 32.86325 | -119.80552 | 23939 ft | 423 kts | 228° |
| 2026-04-20 07:49 | 32.84285 | -119.83085 | 24163 ft | 424 kts | 228° |
| 2026-04-20 07:50 | 32.82249 | -119.85611 | 24413 ft | 424 kts | 228° |
| 2026-04-20 07:50 | 32.80203 | -119.88148 | 24620 ft | 425 kts | 228° |
| 2026-04-20 07:50 | 32.78155 | -119.90685 | 24815 ft | 426 kts | 228° |
| 2026-04-20 07:50 | 32.76098 | -119.93232 | 25005 ft | 428 kts | 228° |
| 2026-04-20 07:51 | 32.74036 | -119.95783 | 25219 ft | 429 kts | 228° |
| 2026-04-20 07:51 | 32.71967 | -119.98342 | 25439 ft | 430 kts | 228° |
| 2026-04-20 07:51 | 32.69895 | -120.00901 | 25625 ft | 431 kts | 228° |
| 2026-04-20 07:51 | 32.67813 | -120.03471 | 25835 ft | 432 kts | 228° |
| 2026-04-20 07:52 | 32.65723 | -120.06049 | 26044 ft | 434 kts | 228° |
| 2026-04-20 07:52 | 32.63627 | -120.08634 | 26248 ft | 435 kts | 228° |
| 2026-04-20 07:52 | 32.61524 | -120.11224 | 26446 ft | 437 kts | 228° |
| 2026-04-20 07:52 | 32.59416 | -120.13819 | 26686 ft | 437 kts | 228° |
| 2026-04-20 07:53 | 32.57303 | -120.16418 | 26910 ft | 438 kts | 228° |
| 2026-04-20 07:53 | 32.55189 | -120.19017 | 27113 ft | 439 kts | 228° |
| 2026-04-20 07:53 | 32.53061 | -120.21631 | 27322 ft | 441 kts | 228° |
| 2026-04-20 07:53 | 32.50932 | -120.24244 | 27533 ft | 442 kts | 228° |
| 2026-04-20 07:54 | 32.48792 | -120.26869 | 27749 ft | 443 kts | 228° |
| 2026-04-20 07:54 | 32.46646 | -120.29499 | 27967 ft | 445 kts | 228° |
| 2026-04-20 07:54 | 32.44506 | -120.32120 | 28179 ft | 446 kts | 228° |
| 2026-04-20 07:54 | 32.42332 | -120.34781 | 28389 ft | 447 kts | 228° |
| 2026-04-20 07:55 | 32.40166 | -120.37430 | 28604 ft | 449 kts | 228° |
| 2026-04-20 07:55 | 32.37993 | -120.40085 | 28811 ft | 450 kts | 228° |
| 2026-04-20 07:55 | 32.35817 | -120.42743 | 29113 ft | 449 kts | 228° |
| 2026-04-20 07:55 | 32.33638 | -120.45401 | 29344 ft | 451 kts | 228° |
| 2026-04-20 07:56 | 32.31454 | -120.48065 | 29538 ft | 452 kts | 228° |
| 2026-04-20 07:56 | 32.29287 | -120.50704 | 29749 ft | 454 kts | 228° |
| 2026-04-20 07:56 | 32.27058 | -120.53419 | 29933 ft | 455 kts | 228° |
| 2026-04-20 07:56 | 32.24876 | -120.56073 | 30107 ft | 458 kts | 228° |
| 2026-04-20 07:57 | 32.22655 | -120.58774 | 30279 ft | 459 kts | 228° |
| 2026-04-20 07:57 | 32.20425 | -120.61483 | 30460 ft | 460 kts | 228° |
| 2026-04-20 07:57 | 32.18193 | -120.64192 | 30624 ft | 462 kts | 228° |
| 2026-04-20 07:57 | 32.15952 | -120.66910 | 30808 ft | 463 kts | 228° |
| 2026-04-20 07:58 | 32.13699 | -120.69641 | 30976 ft | 464 kts | 228° |
| 2026-04-20 07:58 | 32.11445 | -120.72371 | 31166 ft | 465 kts | 228° |
| 2026-04-20 07:58 | 32.09183 | -120.75109 | 31323 ft | 467 kts | 228° |
| 2026-04-20 07:58 | 32.06913 | -120.77853 | 31520 ft | 468 kts | 228° |
| 2026-04-20 07:59 | 32.04637 | -120.80604 | 31673 ft | 469 kts | 228° |
| 2026-04-20 07:59 | 32.02356 | -120.83358 | 31892 ft | 469 kts | 228° |
| 2026-04-20 07:59 | 32.00077 | -120.86108 | 32146 ft | 468 kts | 228° |
| 2026-04-20 07:59 | 31.97803 | -120.88849 | 32365 ft | 468 kts | 228° |
| 2026-04-20 08:00 | 31.95530 | -120.91587 | 32608 ft | 467 kts | 228° |
| 2026-04-20 08:00 | 31.93256 | -120.94325 | 32850 ft | 467 kts | 228° |
| 2026-04-20 08:00 | 31.90985 | -120.97057 | 33073 ft | 466 kts | 228° |
| 2026-04-20 08:00 | 31.88723 | -120.99775 | 33373 ft | 464 kts | 228° |
| 2026-04-20 08:01 | 31.86463 | -121.02490 | 33608 ft | 464 kts | 228° |
| 2026-04-20 08:01 | 31.84206 | -121.05199 | 33796 ft | 464 kts | 228° |
| 2026-04-20 08:01 | 31.82711 | -121.06993 | 33937 ft | 464 kts | 228° |
| 2026-04-20 08:01 | 31.80450 | -121.09703 | 34150 ft | 464 kts | 228° |
| 2026-04-20 08:02 | 31.78191 | -121.12410 | 34345 ft | 463 kts | 228° |
| 2026-04-20 08:02 | 31.75939 | -121.15104 | 34549 ft | 462 kts | 228° |
| 2026-04-20 08:02 | 31.73686 | -121.17800 | 34751 ft | 461 kts | 228° |
| 2026-04-20 08:02 | 31.71439 | -121.20486 | 34963 ft | 461 kts | 228° |
| 2026-04-20 08:03 | 31.69197 | -121.23163 | 35141 ft | 460 kts | 228° |
| 2026-04-20 08:03 | 31.66952 | -121.25843 | 35347 ft | 459 kts | 228° |
| 2026-04-20 08:03 | 31.64717 | -121.28508 | 35576 ft | 457 kts | 228° |
| 2026-04-20 08:03 | 31.62488 | -121.31165 | 35769 ft | 457 kts | 228° |
| 2026-04-20 08:04 | 31.60256 | -121.33822 | 35945 ft | 457 kts | 228° |
| 2026-04-20 08:04 | 31.58030 | -121.36473 | 36039 ft | 458 kts | 228° |
| 2026-04-20 08:04 | 31.53530 | -121.41824 | 36078 ft | 462 kts | 228° |
| 2026-04-20 08:05 | 31.49045 | -121.47142 | 36075 ft | 461 kts | 228° |
| 2026-04-20 08:05 | 31.44532 | -121.52484 | 36077 ft | 461 kts | 228° |
| 2026-04-20 08:06 | 31.40020 | -121.57817 | 36071 ft | 461 kts | 228° |
| 2026-04-20 08:06 | 31.35511 | -121.63141 | 36073 ft | 461 kts | 228° |
| 2026-04-20 08:07 | 31.30997 | -121.68463 | 36077 ft | 461 kts | 228° |
| 2026-04-20 08:07 | 31.26477 | -121.73783 | 36075 ft | 461 kts | 228° |
| 2026-04-20 08:08 | 31.21961 | -121.79091 | 36069 ft | 461 kts | 228° |
| 2026-04-20 08:08 | 31.17440 | -121.84398 | 36078 ft | 460 kts | 228° |
| 2026-04-20 08:09 | 31.12925 | -121.89691 | 36074 ft | 460 kts | 228° |
| 2026-04-20 08:09 | 31.08405 | -121.94981 | 36076 ft | 460 kts | 228° |
| 2026-04-20 08:10 | 31.03885 | -122.00264 | 36076 ft | 460 kts | 228° |
| 2026-04-20 08:10 | 30.99365 | -122.05539 | 36076 ft | 460 kts | 228° |
| 2026-04-20 08:11 | 30.94847 | -122.10804 | 36076 ft | 459 kts | 228° |
| 2026-04-20 08:11 | 30.90334 | -122.16057 | 36073 ft | 459 kts | 228° |
| 2026-04-20 08:12 | 30.85847 | -122.21270 | 36072 ft | 458 kts | 228° |
| 2026-04-20 08:12 | 30.81346 | -122.26494 | 36075 ft | 456 kts | 228° |
| 2026-04-20 08:13 | 30.76855 | -122.31699 | 36075 ft | 456 kts | 228° |
| 2026-04-20 08:13 | 30.72356 | -122.36906 | 36075 ft | 456 kts | 228° |
| 2026-04-20 08:14 | 30.67860 | -122.42101 | 36073 ft | 455 kts | 228° |
| 2026-04-20 08:14 | 30.63382 | -122.47269 | 36073 ft | 455 kts | 228° |
| 2026-04-20 08:15 | 30.58882 | -122.52457 | 36078 ft | 455 kts | 228° |
| 2026-04-20 08:15 | 30.54381 | -122.57636 | 36078 ft | 455 kts | 228° |
| 2026-04-20 08:16 | 30.49902 | -122.62783 | 36078 ft | 451 kts | 229° |
| 2026-04-20 08:16 | 30.45467 | -122.67868 | 36077 ft | 446 kts | 229° |
| 2026-04-20 08:17 | 30.41066 | -122.72913 | 36078 ft | 445 kts | 229° |
| 2026-04-20 08:17 | 30.36656 | -122.77965 | 36078 ft | 445 kts | 229° |
| 2026-04-20 08:18 | 30.32250 | -122.83003 | 36080 ft | 445 kts | 229° |
| 2026-04-20 08:18 | 30.27849 | -122.88045 | 36080 ft | 445 kts | 229° |
| 2026-04-20 08:19 | 30.23446 | -122.93079 | 36077 ft | 443 kts | 229° |
| 2026-04-20 08:19 | 30.19095 | -122.98047 | 36078 ft | 442 kts | 229° |
| 2026-04-20 08:20 | 30.14729 | -123.03027 | 36079 ft | 439 kts | 230° |
| 2026-04-20 08:20 | 30.10395 | -123.07961 | 36080 ft | 436 kts | 230° |
| 2026-04-20 08:21 | 30.06077 | -123.12874 | 36080 ft | 436 kts | 230° |
| 2026-04-20 08:21 | 30.01765 | -123.17776 | 36081 ft | 435 kts | 230° |
| 2026-04-20 08:22 | 29.97450 | -123.22673 | 36080 ft | 435 kts | 230° |
| 2026-04-20 08:22 | 29.93132 | -123.27566 | 36081 ft | 435 kts | 230° |
| 2026-04-20 08:23 | 29.88814 | -123.32453 | 36082 ft | 435 kts | 230° |
| 2026-04-20 08:23 | 29.84497 | -123.37333 | 36083 ft | 435 kts | 230° |
| 2026-04-20 08:24 | 29.80173 | -123.42215 | 36076 ft | 436 kts | 230° |
| 2026-04-20 08:24 | 29.75850 | -123.47090 | 36080 ft | 436 kts | 230° |
| 2026-04-20 08:25 | 29.71504 | -123.51982 | 36083 ft | 436 kts | 230° |
| 2026-04-20 08:25 | 29.67169 | -123.56856 | 36083 ft | 436 kts | 230° |
| 2026-04-20 08:26 | 29.62831 | -123.61728 | 36084 ft | 436 kts | 230° |
| 2026-04-20 08:26 | 29.58489 | -123.66600 | 36085 ft | 436 kts | 230° |
| 2026-04-20 08:27 | 29.54167 | -123.71442 | 36084 ft | 436 kts | 229° |
| 2026-04-20 08:27 | 29.49825 | -123.76300 | 36086 ft | 436 kts | 229° |
| 2026-04-20 08:28 | 29.45477 | -123.81159 | 36073 ft | 436 kts | 229° |
| 2026-04-20 08:28 | 29.41123 | -123.86018 | 36081 ft | 436 kts | 229° |
| 2026-04-20 08:29 | 29.36770 | -123.90870 | 36090 ft | 437 kts | 229° |
| 2026-04-20 08:29 | 29.32415 | -123.95718 | 36080 ft | 437 kts | 229° |
| 2026-04-20 08:30 | 29.28058 | -124.00563 | 36084 ft | 436 kts | 229° |
| 2026-04-20 08:30 | 29.23708 | -124.05393 | 36086 ft | 436 kts | 229° |
| 2026-04-20 08:31 | 29.19357 | -124.10218 | 36084 ft | 436 kts | 229° |